Bookmark and Share
Track history (hours):
 

Scf Baltica

Last reported at 2014-Apr-23 23:31 UTC. Time now 2014-Apr-24 00:28 UTC.
Position N 54°26' E 011°59'.

Length 250 m; draft 14.2 m.

Type: Ship. MMSI: 636012813.

NotesDate/timePositionNaut miles runAvg speedWind from/ knotsBaromVisibWave heightAir tempDewpointWater temp
2014-Apr-23 23:31N 54°26' E 011°59'9 9.1
2014-Apr-23 22:33N 54°30' E 012°13'9 8.8
2014-Apr-23 21:33N 54°38' E 012°20'9 8.8
2014-Apr-23 20:33N 54°43' E 012°33'10 9.0
2014-Apr-23 19:29N 54°47' E 012°47'1112.3
2014-Apr-23 18:33N 54°52' E 013°06'1413.2
2014-Apr-23 17:28N 54°57' E 013°28'1112.4
2014-Apr-23 16:33N 55°02' E 013°46'1212.3
2014-Apr-23 15:33N 55°07' E 014°06'1212.5
2014-Apr-23 14:33N 55°16' E 014°21'1312.6
2014-Apr-23 13:33N 55°26' E 014°35'1312.9
2014-Apr-23 12:33N 55°32' E 014°55'1312.8
2014-Apr-23 11:33N 55°38' E 015°15'1312.8
2014-Apr-23 10:32N 55°41' E 015°37'1312.7
2014-Apr-23 09:29N 55°44' E 016°00'2412.6
2014-Apr-23 07:33N 55°50' E 016°42'1312.6
2014-Apr-23 06:33N 55°54' E 017°04'1312.6
2014-Apr-23 05:33N 55°57' E 017°26'1212.4
2014-Apr-23 04:33N 56°01' E 017°47'1312.5
2014-Apr-23 03:33N 56°07' E 018°06'1312.5
2014-Apr-23 02:34N 56°14' E 018°25'25212.3
2014-Apr-22 06:04N 59°35' E 023°08'612.5
2014-Apr-22 05:33N 59°37' E 023°20'1312.5
2014-Apr-22 04:33N 59°41' E 023°44'1212.5
2014-Apr-22 03:33N 59°44' E 024°08'1212.3
2014-Apr-22 02:33N 59°48' E 024°32'1412.4
2014-Apr-22 01:26N 59°50' E 024°58'4912.4
2014-Apr-21 21:31N 60°01' E 026°33'  
2014-Apr-17 20:33N 59°59' E 026°44'5410.8
2014-Apr-17 15:33N 59°48' E 024°59'1110.7
2014-Apr-17 14:33N 59°46' E 024°38'1110.8
2014-Apr-17 13:33N 59°43' E 024°17'1010.4
2014-Apr-17 12:33N 59°40' E 023°58'1110.5
2014-Apr-17 11:33N 59°36' E 023°38'1110.6
2014-Apr-17 10:33N 59°32' E 023°19'29810.6
2014-Apr-16 06:32N 56°01' E 016°44'1110.9
2014-Apr-16 05:33N 55°57' E 016°27'1110.7
2014-Apr-16 04:33N 55°51' E 016°10'1310.6
2014-Apr-16 03:18N 55°45' E 015°49'810.9
2014-Apr-16 02:33N 55°41' E 015°37'1110.9
2014-Apr-16 01:33N 55°36' E 015°19'1110.9
2014-Apr-16 00:33N 55°31' E 015°03'1111.0
2014-Apr-15 23:33N 55°25' E 014°46'1110.8
2014-Apr-15 22:33N 55°18' E 014°32'1111.1
2014-Apr-15 21:33N 55°09' E 014°20'1111.2
2014-Apr-15 20:33N 55°01' E 014°07'1111.0
2014-Apr-15 19:33N 54°57' E 013°49'1110.9
2014-Apr-15 18:33N 54°54' E 013°30'1110.5
2014-Apr-15 17:33N 54°51' E 013°13'1010.1
2014-Apr-15 16:33N 54°47' E 012°56'1010.5
2014-Apr-15 15:33N 54°43' E 012°40'1111.0
2014-Apr-15 14:33N 54°37' E 012°24'10 5.2
2014-Apr-15 12:34N 54°29' E 012°13'1110.6
2014-Apr-15 11:34N 54°25' E 011°56'1211.7
2014-Apr-15 10:34N 54°28' E 011°37'1313.0
2014-Apr-15 09:34N 54°33' E 011°17'13110.9
2014-Apr-14 21:34N 56°43' E 011°49'1110.8
2014-Apr-14 20:33N 56°54' E 011°46'1212.0
2014-Apr-14 19:34N 57°05' E 011°39'1312.7
2014-Apr-14 18:34N 57°17' E 011°31'1212.4
2014-Apr-14 17:34N 57°28' E 011°23'1212.4
2014-Apr-14 16:34N 57°37' E 011°06'1212.5
2014-Apr-14 15:34N 57°45' E 010°49'1313.0
2014-Apr-14 14:34N 57°47' E 010°25'  

Dump ship's entire track history

sailing weather and tide predictions

Scf Baltica — A8IA5 — position and weather